Time;durP1;ratioP1;P1;durP2;ratioP2;P2;SDS_P1;SDS_P2;PMS_P1;PMS_P2;Temp;Humidity;BMP_temperature;BMP_pressure;BME280_temperature;BME280_humidity;BME280_pressure;Samples;Min_cycle;Max_cycle;Signal;HPM_P1;HPM_P2
2022/05/03 00:01:57;;;;;;;5.03;4.43;;;8.20;99.90;;;;;;484008;245;29345;-70
2022/05/03 00:03:58;;;;;;;5.07;4.63;;;8.30;99.90;;;;;;484018;245;28447;-70
2022/05/03 00:05:59;;;;;;;5.00;4.60;;;8.30;99.90;;;;;;484029;245;29008;-72
2022/05/03 00:08:01;;;;;;;4.90;4.50;;;8.40;99.90;;;;;;484021;246;28469;-70
2022/05/03 00:10:02;;;;;;;5.20;4.80;;;8.40;99.90;;;;;;484022;244;27975;-70
2022/05/03 00:12:03;;;;;;;4.73;4.40;;;8.40;99.90;;;;;;484020;245;27790;-69
2022/05/03 00:14:05;;;;;;;5.07;4.67;;;8.50;99.90;;;;;;484019;246;27738;-70
2022/05/03 00:16:06;;;;;;;4.50;4.20;;;8.50;99.90;;;;;;484035;245;28099;-74
2022/05/03 00:18:07;;;;;;;4.87;4.53;;;8.50;99.90;;;;;;484002;246;27607;-70
2022/05/03 00:20:08;;;;;;;5.00;4.60;;;8.50;99.90;;;;;;483998;245;28187;-71
2022/05/03 00:22:09;;;;;;;5.50;4.97;;;8.50;99.90;;;;;;483981;245;27978;-70
2022/05/03 00:24:11;;;;;;;4.77;4.47;;;8.40;99.90;;;;;;484033;245;27703;-70
2022/05/03 00:26:12;;;;;;;5.33;4.93;;;8.40;99.90;;;;;;484016;246;27888;-73
2022/05/03 00:28:13;;;;;;;5.70;5.20;;;8.40;99.90;;;;;;484019;243;27867;-70
2022/05/03 00:30:15;;;;;;;5.43;4.93;;;8.50;99.90;;;;;;484013;245;27874;-70
2022/05/03 00:32:16;;;;;;;5.17;4.77;;;8.50;99.90;;;;;;484000;246;28132;-70
2022/05/03 00:34:17;;;;;;;5.20;4.70;;;8.50;99.90;;;;;;484015;246;27978;-70
2022/05/03 00:36:18;;;;;;;5.10;4.70;;;8.50;99.90;;;;;;484031;245;28077;-73
2022/05/03 00:38:19;;;;;;;4.93;4.53;;;8.50;99.90;;;;;;484045;244;28550;-70
2022/05/03 00:40:21;;;;;;;5.67;5.27;;;8.60;99.90;;;;;;484017;246;28486;-70
2022/05/03 00:42:22;;;;;;;5.63;5.13;;;8.50;99.90;;;;;;483991;245;28410;-70
2022/05/03 00:46:43;;;;;;;5.30;4.90;;;8.60;99.90;;;;;;483987;245;28584;-71
2022/05/03 00:48:44;;;;;;;5.60;5.20;;;8.50;99.90;;;;;;484030;245;27870;-70
2022/05/03 00:50:45;;;;;;;5.57;4.80;;;8.50;99.90;;;;;;483992;243;28011;-71
2022/05/03 00:52:46;;;;;;;6.07;4.70;;;8.50;99.90;;;;;;484049;245;27839;-70
2022/05/03 00:54:48;;;;;;;5.33;4.93;;;8.50;99.90;;;;;;483973;246;27592;-70
2022/05/03 00:56:49;;;;;;;5.13;4.73;;;8.50;99.90;;;;;;484052;245;27860;-73
2022/05/03 00:58:50;;;;;;;5.40;5.00;;;8.50;99.90;;;;;;484039;245;27988;-70
2022/05/03 01:00:51;;;;;;;4.87;4.47;;;8.40;99.90;;;;;;483823;246;28047;-70
2022/05/03 01:02:53;;;;;;;4.67;4.37;;;8.40;99.90;;;;;;483965;245;27686;-70
2022/05/03 01:04:54;;;;;;;4.57;4.20;;;8.40;99.90;;;;;;483966;246;27759;-70
2022/05/03 01:06:56;;;;;;;5.40;5.00;;;8.40;99.90;;;;;;483952;246;27690;-71
2022/05/03 01:08:56;;;;;;;5.27;4.87;;;8.40;99.90;;;;;;483950;246;28172;-69
2022/05/03 01:10:58;;;;;;;4.60;4.20;;;8.40;99.90;;;;;;483966;245;28197;-69
2022/05/03 01:12:59;;;;;;;7.93;4.63;;;8.40;99.90;;;;;;484021;246;27558;-74
2022/05/03 01:15:00;;;;;;;5.60;5.20;;;8.40;99.90;;;;;;484025;245;28473;-70
2022/05/03 01:17:02;;;;;;;4.67;4.37;;;8.40;99.90;;;;;;483951;246;28617;-70
2022/05/03 01:19:03;;;;;;;4.90;4.50;;;8.40;99.90;;;;;;483997;245;28532;-70
2022/05/03 01:21:04;;;;;;;6.23;5.73;;;8.40;99.90;;;;;;484010;245;28493;-70
2022/05/03 01:23:05;;;;;;;5.23;4.83;;;8.30;99.90;;;;;;484042;245;28557;-70
2022/05/03 01:25:06;;;;;;;6.00;5.50;;;8.30;99.90;;;;;;484075;245;28044;-70
2022/05/03 01:27:08;;;;;;;5.20;4.80;;;8.30;99.90;;;;;;484066;245;28608;-71
2022/05/03 01:29:09;;;;;;;4.80;4.40;;;8.30;99.90;;;;;;484062;245;28096;-70
2022/05/03 01:31:10;;;;;;;5.33;4.93;;;8.30;99.90;;;;;;484048;245;28285;-70
2022/05/03 01:33:11;;;;;;;5.63;5.13;;;8.30;99.90;;;;;;484056;246;27926;-69
2022/05/03 01:35:13;;;;;;;4.97;4.50;;;8.30;99.90;;;;;;484042;246;28055;-70
2022/05/03 01:37:14;;;;;;;5.60;4.70;;;8.30;99.90;;;;;;484017;246;27886;-71
2022/05/03 01:39:16;;;;;;;5.23;4.83;;;8.20;99.90;;;;;;484028;246;27722;-70
2022/05/03 01:41:18;;;;;;;4.50;4.20;;;8.20;99.90;;;;;;484031;246;28120;-70
2022/05/03 01:43:18;;;;;;;4.90;4.50;;;8.20;99.90;;;;;;483953;246;28052;-73
2022/05/03 01:45:19;;;;;;;5.30;4.90;;;8.20;99.90;;;;;;484072;246;28088;-70
2022/05/03 01:47:20;;;;;;;5.70;5.00;;;8.30;99.90;;;;;;484061;246;28470;-69
2022/05/03 01:51:41;;;;;;;5.57;5.10;;;8.30;99.90;;;;;;484055;246;27803;-70
2022/05/03 01:53:42;;;;;;;5.30;4.90;;;8.30;99.90;;;;;;484051;246;28025;-73
2022/05/03 01:55:43;;;;;;;5.10;4.70;;;8.30;99.90;;;;;;484048;246;27975;-71
2022/05/03 01:57:44;;;;;;;5.20;4.70;;;8.40;99.90;;;;;;484070;246;27655;-71
2022/05/03 01:59:46;;;;;;;5.30;4.80;;;8.40;99.90;;;;;;484029;246;27847;-70
2022/05/03 02:01:47;;;;;;;4.90;4.50;;;8.30;99.90;;;;;;484063;246;27993;-70
2022/05/03 02:03:48;;;;;;;4.97;4.57;;;8.40;99.90;;;;;;484056;246;27721;-71
2022/05/03 02:05:49;;;;;;;5.20;4.80;;;8.40;99.90;;;;;;484060;246;28048;-70
2022/05/03 02:07:51;;;;;;;5.27;4.87;;;8.40;99.90;;;;;;484062;246;28167;-71
2022/05/03 02:09:52;;;;;;;5.27;4.77;;;8.30;99.90;;;;;;484053;246;28027;-70
2022/05/03 02:11:53;;;;;;;5.23;4.83;;;8.30;99.90;;;;;;483924;246;28467;-70
2022/05/03 02:16:14;;;;;;;5.83;4.87;;;8.40;99.90;;;;;;484051;241;28016;-70
2022/05/03 02:18:16;;;;;;;4.93;4.63;;;8.40;99.90;;;;;;484026;246;27966;-70
2022/05/03 02:20:17;;;;;;;5.43;4.93;;;8.30;99.90;;;;;;484066;246;28140;-75
2022/05/03 02:22:18;;;;;;;5.70;5.20;;;8.30;99.90;;;;;;484069;246;28584;-70
2022/05/03 02:24:19;;;;;;;5.40;5.00;;;8.30;99.90;;;;;;484059;246;28541;-71
2022/05/03 02:26:21;;;;;;;5.13;4.73;;;8.30;99.90;;;;;;484059;246;28493;-70
2022/05/03 02:28:22;;;;;;;5.53;5.03;;;8.30;99.90;;;;;;484042;246;28561;-70
2022/05/03 02:30:23;;;;;;;5.47;4.97;;;8.30;99.90;;;;;;484071;246;28048;-73
2022/05/03 02:32:24;;;;;;;5.20;4.80;;;8.40;99.90;;;;;;484079;246;27603;-69
2022/05/03 02:34:25;;;;;;;5.70;5.20;;;8.40;99.90;;;;;;484077;246;27994;-70
2022/05/03 02:36:27;;;;;;;5.40;5.00;;;8.40;99.90;;;;;;484110;246;27916;-70
2022/05/03 02:38:28;;;;;;;5.20;4.80;;;8.40;99.90;;;;;;484048;240;28125;-70
2022/05/03 02:40:29;;;;;;;5.90;5.40;;;8.40;99.90;;;;;;483942;246;27994;-73
2022/05/03 02:42:30;;;;;;;6.13;5.40;;;8.40;99.90;;;;;;483912;246;27826;-70
2022/05/03 02:44:32;;;;;;;6.13;5.53;;;8.30;99.90;;;;;;483763;246;28098;-71
2022/05/03 02:46:33;;;;;;;4.80;4.50;;;8.30;99.90;;;;;;483882;246;27983;-70
2022/05/03 02:48:35;;;;;;;5.40;5.00;;;8.20;99.90;;;;;;484021;245;28085;-70
2022/05/03 02:50:37;;;;;;;5.10;4.70;;;8.20;99.90;;;;;;484017;246;27886;-74
2022/05/03 02:52:38;;;;;;;4.80;4.40;;;8.20;99.90;;;;;;484044;245;27895;-72
2022/05/03 02:54:39;;;;;;;5.07;4.67;;;8.20;99.90;;;;;;484014;246;27870;-70
2022/05/03 02:56:40;;;;;;;4.93;4.53;;;8.10;99.90;;;;;;484015;245;27969;-69
2022/05/03 02:58:42;;;;;;;5.13;4.70;;;8.00;99.90;;;;;;484021;245;29244;-70
2022/05/03 03:03:03;;;;;;;5.43;4.97;;;8.00;99.90;;;;;;484022;246;28168;-71
2022/05/03 03:05:04;;;;;;;5.13;4.73;;;8.10;99.90;;;;;;484008;245;27933;-70
2022/05/03 03:07:05;;;;;;;5.17;4.80;;;8.10;99.90;;;;;;484052;244;27872;-70
2022/05/03 03:09:06;;;;;;;5.20;4.80;;;8.10;99.90;;;;;;484039;244;28088;-72
2022/05/03 03:11:10;;;;;;;4.83;4.43;;;8.20;99.90;;;;;;484016;246;28034;-70
2022/05/03 03:13:12;;;;;;;5.27;4.87;;;8.20;99.90;;;;;;484012;245;28150;-70
2022/05/03 03:15:13;;;;;;;5.30;4.40;;;8.20;99.90;;;;;;484018;246;27993;-70
2022/05/03 03:17:14;;;;;;;4.97;4.57;;;8.20;99.90;;;;;;484009;245;27967;-70
2022/05/03 03:19:15;;;;;;;5.50;5.00;;;8.20;99.90;;;;;;484035;245;27942;-71
2022/05/03 03:21:17;;;;;;;4.93;4.50;;;8.20;99.90;;;;;;484025;245;27946;-73
2022/05/03 03:23:20;;;;;;;5.20;4.63;;;8.10;99.90;;;;;;484025;246;28055;-70
2022/05/03 03:25:22;;;;;;;5.50;5.10;;;8.10;99.90;;;;;;484032;246;27849;-70
2022/05/03 03:27:23;;;;;;;5.90;5.40;;;8.00;99.90;;;;;;484018;246;27638;-70
2022/05/03 03:29:24;;;;;;;5.37;4.87;;;8.00;99.90;;;;;;484037;245;27966;-70
2022/05/03 03:31:25;;;;;;;5.30;4.90;;;8.10;99.90;;;;;;484017;245;28043;-70
2022/05/03 03:33:27;;;;;;;5.50;5.10;;;8.10;99.90;;;;;;484031;245;28017;-73
2022/05/03 03:35:29;;;;;;;5.20;4.70;;;8.20;99.90;;;;;;484034;245;27911;-70
2022/05/03 03:37:29;;;;;;;5.73;5.13;;;8.20;99.90;;;;;;483979;246;28508;-70
2022/05/03 03:39:30;;;;;;;5.43;4.93;;;8.30;99.90;;;;;;484023;246;28507;-70
2022/05/03 03:41:32;;;;;;;5.70;5.03;;;8.20;99.90;;;;;;484051;245;28619;-70
2022/05/03 03:43:33;;;;;;;4.70;4.40;;;8.20;99.90;;;;;;483736;245;28374;-73
2022/05/03 03:45:34;;;;;;;5.90;5.40;;;8.30;99.90;;;;;;484026;245;28502;-70
2022/05/03 03:47:35;;;;;;;5.93;5.43;;;8.30;99.90;;;;;;484000;246;28549;-70
2022/05/03 03:49:37;;;;;;;6.40;5.90;;;8.30;99.90;;;;;;484030;245;28030;-70
2022/05/03 03:51:38;;;;;;;6.07;5.57;;;8.30;99.90;;;;;;484020;245;27768;-69
2022/05/03 03:53:39;;;;;;;7.17;6.57;;;8.30;99.90;;;;;;484029;245;27994;-74
2022/05/03 03:55:40;;;;;;;7.10;6.50;;;8.30;99.90;;;;;;484041;245;27611;-70
2022/05/03 03:57:42;;;;;;;6.83;6.10;;;8.30;99.90;;;;;;484007;245;28035;-70
2022/05/03 03:59:43;;;;;;;6.37;5.87;;;8.30;99.90;;;;;;484039;246;27934;-70
2022/05/03 04:01:44;;;;;;;6.97;6.30;;;8.30;99.90;;;;;;484002;245;28125;-70
2022/05/03 04:03:45;;;;;;;6.30;5.70;;;8.30;99.90;;;;;;484020;241;28011;-73
2022/05/03 04:05:47;;;;;;;6.00;5.50;;;8.40;99.90;;;;;;484005;245;27979;-70
2022/05/03 04:07:48;;;;;;;5.50;5.00;;;8.30;99.90;;;;;;484028;245;27660;-70
2022/05/03 04:09:49;;;;;;;6.10;5.60;;;8.30;99.90;;;;;;483986;246;27726;-70
2022/05/03 04:11:50;;;;;;;5.70;5.30;;;8.40;99.90;;;;;;484020;245;27658;-70
2022/05/03 04:13:52;;;;;;;5.60;5.10;;;8.30;99.90;;;;;;484017;244;28394;-75
2022/05/03 04:15:53;;;;;;;5.10;4.60;;;8.30;99.90;;;;;;484027;245;28117;-70
2022/05/03 04:17:54;;;;;;;5.20;4.80;;;8.30;99.90;;;;;;484040;245;28214;-71
2022/05/03 04:19:55;;;;;;;5.83;5.23;;;8.30;99.90;;;;;;484034;246;28425;-70
2022/05/03 04:22:12;;;;;;;5.50;5.10;;;8.30;99.90;;;;;;484024;241;28470;-70
2022/05/03 04:23:59;;;;;;;5.63;5.20;;;8.30;99.90;;;;;;482963;246;28553;-71
2022/05/03 04:25:59;;;;;;;5.37;4.87;;;8.40;99.90;;;;;;484002;245;28432;-70
2022/05/03 04:28:00;;;;;;;6.87;6.27;;;8.40;99.90;;;;;;484024;245;28056;-72
2022/05/03 04:30:02;;;;;;;5.17;4.70;;;8.30;99.90;;;;;;484032;245;28394;-70
2022/05/03 04:32:03;;;;;;;5.37;4.97;;;8.30;99.90;;;;;;484008;246;28177;-70
2022/05/03 04:34:04;;;;;;;5.47;5.07;;;8.30;99.90;;;;;;484028;245;27542;-73
2022/05/03 04:36:05;;;;;;;5.43;4.93;;;8.30;99.90;;;;;;484035;246;27959;-70
2022/05/03 04:38:07;;;;;;;5.23;4.83;;;8.40;99.90;;;;;;484044;245;27894;-70
2022/05/03 04:40:08;;;;;;;5.33;4.83;;;8.40;99.90;;;;;;484013;245;28463;-70
2022/05/03 04:42:09;;;;;;;6.93;6.33;;;8.40;99.90;;;;;;483998;243;28326;-72
2022/05/03 04:44:10;;;;;;;6.13;5.53;;;8.40;99.90;;;;;;484076;245;28580;-74
2022/05/03 04:46:12;;;;;;;5.90;5.43;;;8.40;99.90;;;;;;484056;246;28200;-70
2022/05/03 04:48:13;;;;;;;6.10;5.50;;;8.50;99.90;;;;;;484014;245;28346;-70
2022/05/03 04:50:14;;;;;;;5.60;5.13;;;8.50;99.90;;;;;;484013;245;28148;-70
2022/05/03 04:52:15;;;;;;;5.97;5.20;;;8.60;99.90;;;;;;484022;245;27995;-70
2022/05/03 04:54:17;;;;;;;6.30;5.70;;;8.60;99.90;;;;;;484033;244;28101;-72
2022/05/03 04:56:18;;;;;;;6.43;5.83;;;8.70;99.90;;;;;;484014;245;28029;-71
2022/05/03 04:58:19;;;;;;;5.30;4.90;;;8.70;99.90;;;;;;484031;246;27631;-70
2022/05/03 05:00:20;;;;;;;5.43;5.00;;;8.80;99.90;;;;;;484045;246;28094;-70
2022/05/03 05:02:22;;;;;;;4.73;4.33;;;8.80;99.90;;;;;;484039;246;28123;-71
2022/05/03 05:04:23;;;;;;;4.80;4.50;;;8.90;99.90;;;;;;484052;245;28016;-72
2022/05/03 05:06:24;;;;;;;5.63;5.13;;;8.90;99.90;;;;;;484034;246;27682;-70
2022/05/03 05:08:25;;;;;;;5.50;5.10;;;9.00;99.90;;;;;;484043;245;27981;-71
2022/05/03 05:10:31;;;;;;;5.10;4.70;;;9.00;99.90;;;;;;484035;246;27981;-70
2022/05/03 05:12:31;;;;;;;5.67;5.17;;;9.10;99.90;;;;;;483937;246;27733;-70
2022/05/03 05:14:33;;;;;;;4.90;4.50;;;9.20;99.90;;;;;;484047;246;28361;-70
2022/05/03 05:16:34;;;;;;;4.90;4.50;;;9.30;99.90;;;;;;484026;245;28069;-73
2022/05/03 05:18:35;;;;;;;5.30;4.80;;;9.30;99.90;;;;;;484036;245;28446;-70
2022/05/03 05:20:36;;;;;;;5.50;5.10;;;9.30;99.90;;;;;;483985;246;28629;-70
2022/05/03 05:22:37;;;;;;;5.70;5.20;;;9.40;99.90;;;;;;484023;245;28649;-70
2022/05/03 05:24:38;;;;;;;5.60;5.10;;;9.30;99.90;;;;;;484031;246;27613;-70
2022/05/03 05:26:41;;;;;;;5.00;4.60;;;9.30;99.90;;;;;;483991;245;28003;-72
2022/05/03 05:28:41;;;;;;;5.27;4.77;;;9.30;99.90;;;;;;483993;246;27950;-70
2022/05/03 05:30:42;;;;;;;5.47;5.00;;;9.30;99.90;;;;;;484033;245;27526;-70
2022/05/03 05:32:43;;;;;;;5.47;4.97;;;9.30;99.90;;;;;;484038;245;28216;-70
2022/05/03 05:34:45;;;;;;;6.43;5.93;;;9.40;99.90;;;;;;484033;246;27622;-71
2022/05/03 05:36:46;;;;;;;5.60;5.20;;;9.40;99.90;;;;;;484048;245;28095;-73
2022/05/03 05:38:47;;;;;;;5.30;4.90;;;9.40;99.90;;;;;;484034;245;27844;-70
2022/05/03 05:40:49;;;;;;;6.10;5.57;;;9.50;99.90;;;;;;484033;246;27844;-71
2022/05/03 05:42:50;;;;;;;5.73;5.33;;;9.50;99.90;;;;;;484013;245;27992;-70
2022/05/03 05:44:51;;;;;;;6.67;6.17;;;9.70;99.90;;;;;;484022;246;28103;-70
2022/05/03 05:46:52;;;;;;;6.47;5.97;;;9.70;99.90;;;;;;484037;246;28076;-72
2022/05/03 05:48:53;;;;;;;6.10;5.60;;;9.70;99.90;;;;;;484027;245;28184;-70
2022/05/03 05:50:55;;;;;;;5.93;5.47;;;9.80;99.90;;;;;;484028;245;27976;-71
2022/05/03 05:55:16;;;;;;;5.80;5.40;;;10.00;99.90;;;;;;484015;246;27990;-70
2022/05/03 05:57:17;;;;;;;6.13;5.60;;;10.00;99.90;;;;;;484027;241;27892;-71
2022/05/03 05:59:18;;;;;;;6.43;5.93;;;10.10;99.90;;;;;;484019;245;28026;-71
2022/05/03 06:01:19;;;;;;;6.03;5.63;;;10.20;99.90;;;;;;484027;246;27851;-71
2022/05/03 06:03:22;;;;;;;5.90;5.40;;;10.20;99.90;;;;;;484020;244;28188;-73
2022/05/03 06:05:22;;;;;;;6.43;5.93;;;10.30;99.90;;;;;;484013;245;28009;-70
2022/05/03 06:07:23;;;;;;;6.30;5.80;;;10.30;99.90;;;;;;484021;246;28226;-71
2022/05/03 06:09:24;;;;;;;6.20;5.73;;;10.30;99.90;;;;;;483999;245;28060;-70
2022/05/03 06:11:26;;;;;;;7.07;6.47;;;10.40;99.90;;;;;;484031;246;27961;-71
2022/05/03 06:13:27;;;;;;;6.07;5.57;;;10.40;99.90;;;;;;483961;245;28655;-71
2022/05/03 06:15:28;;;;;;;6.80;6.30;;;10.50;99.90;;;;;;484037;246;28689;-71
2022/05/03 06:17:29;;;;;;;6.13;5.60;;;10.60;99.90;;;;;;483985;244;28681;-71
2022/05/03 06:19:31;;;;;;;6.43;5.93;;;10.70;99.90;;;;;;484045;244;28842;-71
2022/05/03 06:21:32;;;;;;;7.00;6.50;;;10.80;99.90;;;;;;484047;244;27999;-71
2022/05/03 06:23:33;;;;;;;6.73;6.23;;;11.00;99.90;;;;;;483992;245;28225;-74
2022/05/03 06:25:35;;;;;;;7.30;6.80;;;11.10;99.90;;;;;;484057;245;28280;-72
2022/05/03 06:27:36;;;;;;;7.33;6.73;;;11.20;99.90;;;;;;484028;245;28222;-71
2022/05/03 06:29:37;;;;;;;7.20;6.70;;;11.20;99.90;;;;;;484039;245;28195;-71
2022/05/03 06:31:38;;;;;;;7.33;6.83;;;11.30;99.90;;;;;;484067;245;28587;-71
2022/05/03 06:33:39;;;;;;;6.83;6.23;;;11.20;99.90;;;;;;484057;245;28457;-72
2022/05/03 06:35:41;;;;;;;7.17;6.53;;;11.30;99.90;;;;;;484039;245;28287;-70
2022/05/03 06:37:42;;;;;;;6.70;6.10;;;11.40;99.90;;;;;;484028;246;29108;-71
2022/05/03 06:39:43;;;;;;;7.50;6.97;;;11.50;99.90;;;;;;483995;246;28999;-70
2022/05/03 06:41:44;;;;;;;9.60;7.43;;;11.60;99.90;;;;;;484057;245;28862;-71
2022/05/03 06:43:46;;;;;;;9.30;8.40;;;11.70;99.90;;;;;;484027;245;28621;-71
2022/05/03 06:45:47;;;;;;;9.50;8.60;;;11.90;99.90;;;;;;484043;245;28302;-70
2022/05/03 06:47:48;;;;;;;9.27;8.37;;;12.00;99.90;;;;;;483922;245;28584;-72
2022/05/03 06:49:49;;;;;;;10.00;9.00;;;12.10;99.90;;;;;;484025;245;28372;-71
2022/05/03 06:51:51;;;;;;;10.87;9.80;;;12.10;99.90;;;;;;484037;245;28079;-71
2022/05/03 06:53:52;;;;;;;9.93;8.90;;;12.10;99.90;;;;;;484030;246;28486;-71
2022/05/03 06:55:53;;;;;;;9.80;8.80;;;12.20;99.90;;;;;;484010;246;28901;-71
2022/05/03 06:57:55;;;;;;;10.03;8.80;;;12.20;99.90;;;;;;484009;245;28463;-70
2022/05/03 06:59:56;;;;;;;11.30;9.03;;;12.40;99.90;;;;;;484016;245;29802;-71
2022/05/03 07:01:57;;;;;;;10.10;9.20;;;12.40;99.90;;;;;;484014;245;28650;-71
2022/05/03 07:03:58;;;;;;;10.43;9.50;;;12.40;99.90;;;;;;484013;245;28405;-70
2022/05/03 07:06:00;;;;;;;10.60;9.10;;;12.40;99.90;;;;;;484021;246;28844;-70
2022/05/03 07:08:01;;;;;;;10.37;9.13;;;12.50;99.90;;;;;;484005;245;28429;-71
2022/05/03 07:10:02;;;;;;;10.93;9.23;;;12.60;99.90;;;;;;484017;246;28519;-70
2022/05/03 07:12:03;;;;;;;9.73;8.73;;;12.60;99.90;;;;;;484042;245;29041;-71
2022/05/03 07:14:05;;;;;;;9.40;8.60;;;12.70;99.90;;;;;;484031;244;28987;-72
2022/05/03 07:16:06;;;;;;;8.27;7.57;;;12.80;99.90;;;;;;483998;246;28940;-71
2022/05/03 07:22:47;;;;;;;8.57;7.73;;;12.90;99.90;;;;;;483997;246;28365;-72
2022/05/03 07:24:49;;;;;;;11.23;10.10;;;12.80;99.90;;;;;;484029;246;28219;-71
2022/05/03 07:26:49;;;;;;;9.67;8.77;;;12.70;99.90;;;;;;483997;246;28912;-71
2022/05/03 07:28:52;;;;;;;12.10;10.00;;;;;;;;;;483963;246;28180;-70
2022/05/03 07:30:53;;;;;;;10.50;9.13;;;12.70;99.90;;;;;;484059;246;26612;-70
2022/05/03 07:32:54;;;;;;;13.83;10.07;;;12.80;99.90;;;;;;484034;245;28345;-71
2022/05/03 07:34:55;;;;;;;15.83;10.00;;;12.90;99.90;;;;;;484000;246;28278;-71
2022/05/03 07:36:57;;;;;;;11.40;9.43;;;13.10;99.90;;;;;;483933;246;28260;-71
2022/05/03 07:38:58;;;;;;;11.93;8.67;;;13.20;99.90;;;;;;484005;246;28928;-71
2022/05/03 07:40:59;;;;;;;11.10;8.97;;;13.40;99.90;;;;;;483873;246;29461;-71
2022/05/03 07:43:03;;;;;;;10.90;7.67;;;13.40;99.90;;;;;;484036;243;28341;-70
2022/05/03 07:45:02;;;;;;;9.67;8.67;;;13.50;99.90;;;;;;483911;246;28430;-72
2022/05/03 07:47:03;;;;;;;9.30;8.50;;;13.60;99.90;;;;;;484034;245;28797;-71
2022/05/03 07:49:04;;;;;;;8.73;7.90;;;13.70;99.90;;;;;;484021;245;29004;-70
2022/05/03 07:51:05;;;;;;;8.80;7.80;;;13.80;99.90;;;;;;484071;245;28931;-75
2022/05/03 07:53:07;;;;;;;10.23;8.00;;;13.80;99.90;;;;;;484059;245;28991;-71
2022/05/03 07:55:08;;;;;;;10.53;9.10;;;13.80;99.90;;;;;;484065;246;28345;-70
2022/05/03 07:57:09;;;;;;;9.07;8.17;;;13.80;99.90;;;;;;484023;246;28531;-71
2022/05/03 07:59:10;;;;;;;11.43;8.37;;;13.70;99.90;;;;;;483815;245;28595;-71
2022/05/03 08:01:12;;;;;;;9.83;8.10;;;13.80;99.90;;;;;;484048;245;28900;-71
2022/05/03 08:03:13;;;;;;;10.43;8.83;;;14.00;99.90;;;;;;483994;246;28865;-71
2022/05/03 08:05:14;;;;;;;10.40;9.23;;;13.70;99.90;;;;;;484045;245;28673;-72
2022/05/03 08:07:15;;;;;;;9.23;8.30;;;13.60;99.90;;;;;;484009;245;28538;-71
2022/05/03 08:09:17;;;;;;;9.27;8.30;;;13.60;99.90;;;;;;484006;245;29476;-71
2022/05/03 08:11:18;;;;;;;9.60;8.60;;;13.80;99.90;;;;;;483937;245;29532;-71
2022/05/03 08:13:19;;;;;;;9.53;8.53;;;13.80;99.90;;;;;;484034;246;29314;-71
2022/05/03 08:15:20;;;;;;;13.07;7.90;;;13.90;99.90;;;;;;484043;245;28890;-71
2022/05/03 08:17:24;;;;;;;9.50;7.80;;;14.00;99.90;;;;;;484015;245;28843;-70
2022/05/03 08:19:23;;;;;;;7.33;6.63;;;14.10;99.90;;;;;;483837;246;28972;-71
2022/05/03 08:21:24;;;;;;;8.50;7.30;;;14.20;99.90;;;;;;484019;245;28888;-71
2022/05/03 08:23:25;;;;;;;8.57;7.77;;;14.40;99.90;;;;;;484030;245;28866;-70
2022/05/03 08:25:27;;;;;;;9.50;8.50;;;14.30;99.90;;;;;;484066;246;28869;-72
2022/05/03 08:27:29;;;;;;;8.33;7.30;;;14.10;99.90;;;;;;484035;245;28945;-71
2022/05/03 08:29:31;;;;;;;7.20;6.57;;;14.10;99.90;;;;;;483987;246;28877;-70
2022/05/03 08:31:30;;;;;;;7.57;6.87;;;14.10;99.90;;;;;;483958;245;28881;-71
2022/05/03 08:33:32;;;;;;;6.30;5.80;;;14.10;99.90;;;;;;484092;245;28866;-71
2022/05/03 08:35:33;;;;;;;8.07;7.27;;;14.10;99.90;;;;;;483982;246;28880;-71
2022/05/03 08:42:15;;;;;;;8.60;7.70;;;14.20;99.90;;;;;;484046;246;28586;-71
2022/05/03 08:44:15;;;;;;;8.77;7.90;;;14.20;99.90;;;;;;483974;241;28992;-71
2022/05/03 08:46:17;;;;;;;9.30;8.40;;;14.30;99.90;;;;;;484061;246;28854;-71
2022/05/03 08:48:17;;;;;;;9.57;7.53;;;14.30;99.90;;;;;;484032;244;28933;-74
2022/05/03 08:50:22;;;;;;;8.13;7.30;;;14.30;99.90;;;;;;484075;245;28531;-71
2022/05/03 08:52:20;;;;;;;8.53;7.63;;;14.30;99.90;;;;;;483779;246;28868;-71
2022/05/03 08:54:21;;;;;;;8.23;7.30;;;14.50;99.90;;;;;;484008;245;28929;-71
2022/05/03 08:56:22;;;;;;;8.93;8.13;;;14.70;99.90;;;;;;484037;245;28953;-71
2022/05/03 08:58:23;;;;;;;9.20;7.90;;;14.90;99.90;;;;;;484009;245;29379;-73
2022/05/03 09:00:25;;;;;;;8.43;7.17;;;14.80;99.90;;;;;;484020;241;29354;-71
2022/05/03 09:02:26;;;;;;;8.20;6.83;;;14.80;99.90;;;;;;483976;245;29334;-71
2022/05/03 09:04:27;;;;;;;7.97;7.27;;;15.00;99.90;;;;;;484016;245;29042;-71
2022/05/03 09:06:28;;;;;;;8.03;6.83;;;15.20;99.90;;;;;;484046;246;28851;-71
2022/05/03 09:08:30;;;;;;;7.63;7.00;;;15.10;99.90;;;;;;484059;246;28869;-74
2022/05/03 09:10:34;;;;;;;9.03;8.17;;;15.00;99.90;;;;;;484038;245;28846;-71
2022/05/03 09:12:35;;;;;;;10.70;7.13;;;15.30;99.90;;;;;;484042;243;29360;-71
2022/05/03 09:14:36;;;;;;;7.37;6.57;;;15.30;99.90;;;;;;484053;246;29360;-71
2022/05/03 09:16:37;;;;;;;13.47;7.90;;;15.40;99.90;;;;;;484078;246;29318;-71
2022/05/03 09:18:39;;;;;;;9.60;8.20;;;15.40;99.90;;;;;;484074;245;28932;-71
2022/05/03 09:25:19;;;;;;;8.17;7.30;;;15.60;99.90;;;;;;484071;245;28859;-71
2022/05/03 09:27:20;;;;;;;8.00;7.20;;;15.60;99.90;;;;;;484074;245;28973;-74
2022/05/03 09:29:22;;;;;;;11.50;7.03;;;15.60;99.90;;;;;;484075;246;28854;-71
2022/05/03 09:31:23;;;;;;;9.13;7.40;;;15.70;99.90;;;;;;484082;245;28956;-72
2022/05/03 09:33:24;;;;;;;7.90;7.10;;;16.00;99.90;;;;;;483931;244;28847;-71
2022/05/03 09:35:25;;;;;;;10.40;6.33;;;15.90;99.90;;;;;;484041;245;29341;-71
2022/05/03 09:37:26;;;;;;;7.03;6.40;;;16.20;99.90;;;;;;484036;245;29330;-72
2022/05/03 09:39:28;;;;;;;6.73;6.13;;;16.30;99.90;;;;;;484069;246;29434;-71
2022/05/03 09:41:30;;;;;;;7.80;6.67;;;16.10;99.90;;;;;;484086;245;28873;-71
2022/05/03 09:43:30;;;;;;;7.13;6.43;;;16.40;99.90;;;;;;484006;245;28928;-71
2022/05/03 09:45:31;;;;;;;7.30;6.60;;;16.30;99.90;;;;;;484027;246;28847;-71
2022/05/03 09:47:33;;;;;;;7.70;6.90;;;16.10;99.90;;;;;;484058;246;28850;-73
2022/05/03 09:49:35;;;;;;;7.90;6.87;;;16.20;99.90;;;;;;484029;246;28885;-71
2022/05/03 09:51:35;;;;;;;7.40;6.80;;;16.30;99.90;;;;;;484048;245;28991;-72
2022/05/03 09:53:36;;;;;;;7.50;6.80;;;16.30;99.90;;;;;;484038;245;28849;-71
2022/05/03 09:55:38;;;;;;;10.10;7.23;;;16.10;99.90;;;;;;484054;246;28851;-71
2022/05/03 09:57:39;;;;;;;7.40;6.67;;;16.00;99.90;;;;;;484039;245;28892;-73
2022/05/03 09:59:40;;;;;;;7.17;5.80;;;16.00;99.90;;;;;;484054;245;29297;-71
2022/05/03 10:01:42;;;;;;;8.87;7.10;;;16.00;99.90;;;;;;484034;246;29440;-71
2022/05/03 10:03:43;;;;;;;8.10;7.40;;;16.30;99.90;;;;;;484041;246;29447;-71
2022/05/03 10:05:47;;;;;;;7.60;6.87;;;16.20;99.90;;;;;;484054;245;28917;-71
2022/05/03 10:07:45;;;;;;;9.50;6.53;;;16.30;99.90;;;;;;483859;246;28898;-71
2022/05/03 10:09:46;;;;;;;7.00;6.30;;;16.40;99.90;;;;;;484036;246;28872;-71
2022/05/03 10:11:50;;;;;;;6.70;6.10;;;16.40;99.90;;;;;;484020;246;28889;-72
2022/05/03 10:13:49;;;;;;;9.10;7.03;;;16.40;99.90;;;;;;483955;246;28884;-72
2022/05/03 10:20:39;;;;;;;6.27;5.70;;;16.30;99.90;;;;;;484075;245;28949;-73
2022/05/03 10:22:39;;;;;;;5.93;5.43;;;16.60;99.90;;;;;;483995;246;28923;-75
2022/05/03 10:24:41;;;;;;;7.10;6.40;;;16.80;99.90;;;;;;484043;244;28872;-71
2022/05/03 10:26:42;;;;;;;6.60;6.10;;;16.60;99.90;;;;;;484037;244;28880;-70
2022/05/03 10:28:43;;;;;;;6.60;6.03;;;16.50;99.90;;;;;;484066;245;28851;-71
2022/05/03 10:30:44;;;;;;;7.27;6.53;;;16.50;99.90;;;;;;484021;245;28853;-71
2022/05/03 10:32:46;;;;;;;7.30;6.60;;;16.60;99.90;;;;;;483410;245;28896;-71
2022/05/03 10:34:48;;;;;;;7.63;6.40;;;16.70;99.90;;;;;;483869;245;28951;-71
2022/05/03 10:36:48;;;;;;;6.60;5.90;;;16.60;99.90;;;;;;483768;246;29370;-71
2022/05/03 10:38:49;;;;;;;6.40;5.77;;;17.10;99.90;;;;;;483891;245;29879;-71
2022/05/03 10:40:51;;;;;;;7.00;6.30;;;17.30;99.90;;;;;;484045;245;29315;-71
2022/05/03 10:42:52;;;;;;;6.20;5.70;;;17.20;99.90;;;;;;484049;245;28883;-72
2022/05/03 10:44:53;;;;;;;6.70;6.10;;;17.10;99.90;;;;;;484029;245;28875;-71
2022/05/03 10:46:54;;;;;;;9.63;6.80;;;17.00;99.90;;;;;;484019;243;28872;-71
2022/05/03 10:48:56;;;;;;;10.40;6.77;;;16.80;99.90;;;;;;484007;246;28878;-71
2022/05/03 10:50:57;;;;;;;7.37;5.70;;;16.80;99.90;;;;;;484020;246;28849;-71
2022/05/03 10:53:05;;;;;;;7.50;6.83;;;16.80;99.90;;;;;;484026;245;28876;-72
2022/05/03 10:55:02;;;;;;;7.63;6.83;;;17.00;99.90;;;;;;483806;246;29340;-74
2022/05/03 10:57:03;;;;;;;8.97;7.47;;;16.90;99.90;;;;;;484080;245;29303;-71
2022/05/03 10:59:05;;;;;;;11.27;7.30;;;16.80;99.90;;;;;;484029;246;28941;-71
2022/05/03 11:01:06;;;;;;;11.60;7.93;;;16.70;99.90;;;;;;484009;245;28975;-71
2022/05/03 11:03:07;;;;;;;7.93;7.13;;;16.70;99.90;;;;;;484018;245;28858;-71
2022/05/03 11:05:08;;;;;;;9.90;7.13;;;16.80;99.90;;;;;;484051;245;28999;-74